createdAt,value
2023-03-24T00:00:52.163Z,99340.84
2023-03-24T00:01:55.628Z,99340.99
2023-03-24T00:03:00.381Z,99337.28
2023-03-24T00:04:05.031Z,99336.44
2023-03-24T00:05:10.252Z,99336.44
2023-03-24T00:06:13.249Z,99339.97
2023-03-24T00:07:16.099Z,99340.84
2023-03-24T00:08:19.459Z,99334.58
2023-03-24T00:09:22.829Z,99332.76
2023-03-24T00:10:27.841Z,99332.61
2023-03-24T00:11:32.892Z,99332.61
2023-03-24T00:12:38.246Z,99335.30
2023-03-24T00:13:42.684Z,99329.91
2023-03-24T00:14:48.801Z,99333.45
2023-03-24T00:15:51.619Z,99330.75
2023-03-24T00:16:56.396Z,99333.45
2023-03-24T00:18:01.588Z,99335.16
2023-03-24T00:19:05.429Z,99335.16
2023-03-24T00:20:13.262Z,99337.84
2023-03-24T00:21:15.976Z,99328.78
2023-03-24T00:22:21.375Z,99321.53
2023-03-24T00:23:29.995Z,99313.45
2023-03-24T00:24:33.922Z,99313.45
2023-03-24T00:25:36.835Z,99313.45
2023-03-24T00:26:40.473Z,99314.28
2023-03-24T00:27:44.397Z,99308.05
2023-03-24T00:28:49.374Z,99316.98
2023-03-24T00:29:53.249Z,99312.45
2023-03-24T00:30:56.267Z,99320.54
2023-03-24T00:32:01.210Z,99320.54
2023-03-24T00:33:04.294Z,99318.68
2023-03-24T00:34:08.233Z,99322.25
2023-03-24T00:35:14.237Z,99321.23
2023-03-24T00:36:19.956Z,99322.25
2023-03-24T00:37:23.505Z,99319.55
2023-03-24T00:38:28.183Z,99326.77
2023-03-24T00:39:31.042Z,99325.78
2023-03-24T00:40:35.069Z,99328.47
2023-03-24T00:41:37.988Z,99320.39
2023-03-24T00:42:42.256Z,99325.78
2023-03-24T00:43:47.951Z,99322.09
2023-03-24T00:44:52.527Z,99322.09
2023-03-24T00:46:01.395Z,99316.70
2023-03-24T00:47:06.528Z,99316.70
2023-03-24T00:48:11.491Z,99317.69
2023-03-24T00:49:15.160Z,99306.91
2023-03-24T00:50:19.806Z,99312.30
2023-03-24T00:51:22.682Z,99307.06
2023-03-24T00:52:29.388Z,99297.99
2023-03-24T00:53:32.975Z,99307.06
2023-03-24T00:54:37.746Z,99297.99
2023-03-24T00:55:45.256Z,99304.38
2023-03-24T00:56:49.116Z,99294.43
2023-03-24T00:57:54.900Z,99296.28
2023-03-24T00:59:01.014Z,99290.75
2023-03-24T01:01:25.432Z,99293.40
2023-03-24T01:02:30.655Z,99287.33
2023-03-24T01:03:34.880Z,99287.48
2023-03-24T01:04:41.799Z,99297.27
2023-03-24T01:05:47.410Z,99288.36
2023-03-24T01:06:52.949Z,99283.11
2023-03-24T01:09:14.793Z,99286.45
2023-03-24T01:10:21.922Z,99290.33
2023-03-24T01:11:25.994Z,99292.19
2023-03-24T01:13:46.954Z,99290.29
2023-03-24T01:14:50.262Z,99293.17
2023-03-24T01:15:53.509Z,99284.25
2023-03-24T01:16:57.871Z,99288.77
2023-03-24T01:18:04.846Z,99279.70
2023-03-24T01:19:08.691Z,99285.09
2023-03-24T01:20:14.216Z,99285.09
2023-03-24T01:21:18.087Z,99290.48
2023-03-24T01:22:21.272Z,99285.93
2023-03-24T01:23:25.482Z,99281.41
2023-03-24T01:24:29.090Z,99292.19
2023-03-24T01:25:35.750Z,99282.40
2023-03-24T01:26:38.566Z,99285.09
2023-03-24T01:27:41.284Z,99284.25
2023-03-24T01:28:45.020Z,99286.95
2023-03-24T01:29:47.930Z,99284.25
2023-03-24T01:30:52.966Z,99288.77
2023-03-24T01:31:56.078Z,99279.86
2023-03-24T01:33:01.806Z,99287.78
2023-03-24T01:34:05.661Z,99287.94
2023-03-24T01:35:10.714Z,99284.25
2023-03-24T01:36:15.644Z,99290.48
2023-03-24T01:37:18.424Z,99291.32
2023-03-24T01:38:21.254Z,99285.93
2023-03-24T01:39:25.249Z,99286.08
2023-03-24T01:40:29.781Z,99286.08
2023-03-24T01:41:38.321Z,99284.41
2023-03-24T01:42:41.953Z,99275.45
2023-03-24T01:43:58.283Z,99275.45
2023-03-24T01:45:02.590Z,99282.70
2023-03-24T01:46:21.394Z,99280.99
2023-03-24T01:47:26.952Z,99280.99
2023-03-24T01:48:54.788Z,99282.85
2023-03-24T01:49:59.986Z,99274.77
2023-03-24T01:51:15.733Z,99282.85
2023-03-24T01:52:24.345Z,99276.59
2023-03-24T01:53:28.125Z,99278.45
2023-03-24T01:54:38.875Z,99277.62
2023-03-24T01:55:43.472Z,99283.00
2023-03-24T01:56:54.294Z,99275.76
2023-03-24T01:57:59.861Z,99274.92
2023-03-24T01:59:07.526Z,99278.45
2023-03-24T02:00:15.797Z,99276.59
2023-03-24T02:01:30.290Z,99274.77
2023-03-24T02:02:35.503Z,99273.78
2023-03-24T02:03:39.775Z,99274.62
2023-03-24T02:04:45.025Z,99270.06
2023-03-24T02:05:50.161Z,99270.94
2023-03-24T02:06:53.899Z,99273.48
2023-03-24T02:08:17.225Z,99271.63
2023-03-24T02:09:22.215Z,99268.09
2023-03-24T02:10:25.697Z,99268.09
2023-03-24T02:11:32.003Z,99268.92
2023-03-24T02:12:37.476Z,99273.33
2023-03-24T02:13:41.005Z,99289.49
2023-03-24T02:14:43.920Z,99287.64
2023-03-24T02:16:17.511Z,99288.50
2023-03-24T02:17:43.636Z,99293.89
2023-03-24T02:19:18.808Z,99295.56
2023-03-24T02:20:56.106Z,99295.56
2023-03-24T02:22:17.515Z,99301.11
2023-03-24T02:23:41.315Z,99288.77
2023-03-24T02:25:02.887Z,99294.31
2023-03-24T02:26:35.798Z,99295.45
2023-03-24T02:28:03.691Z,99293.93
2023-03-24T02:29:16.063Z,99291.36
2023-03-24T02:30:44.442Z,99296.89
2023-03-24T02:32:07.678Z,99290.82
2023-03-24T02:33:17.180Z,99291.80
2023-03-24T02:34:46.924Z,99293.81
2023-03-24T02:37:32.235Z,99283.16
2023-03-24T02:39:02.435Z,99298.48
2023-03-24T02:40:14.921Z,99289.72
2023-03-24T02:41:38.302Z,99288.01
2023-03-24T02:42:54.017Z,99290.55
2023-03-24T02:45:40.817Z,99285.13
2023-03-24T02:46:49.864Z,99288.99
2023-03-24T02:48:32.817Z,99285.46
2023-03-24T02:49:51.057Z,99286.30
2023-03-24T02:51:10.044Z,99288.01
2023-03-24T02:52:22.437Z,99288.84
2023-03-24T02:53:45.175Z,99292.55
2023-03-24T02:55:10.747Z,99289.86
2023-03-24T02:56:22.876Z,99289.86
2023-03-24T02:57:35.667Z,99294.38
2023-03-24T02:59:04.299Z,99297.94
2023-03-24T03:00:16.404Z,99307.70
2023-03-24T03:01:32.535Z,99301.63
2023-03-24T03:02:43.662Z,99302.46
2023-03-24T03:03:53.018Z,99314.11
2023-03-24T03:05:13.315Z,99312.25
2023-03-24T03:07:40.711Z,99313.93
2023-03-24T03:08:43.846Z,99305.00
2023-03-24T03:09:53.029Z,99305.88
2023-03-24T03:10:56.041Z,99309.41
2023-03-24T03:11:58.992Z,99306.56
2023-03-24T03:13:02.115Z,99302.05
2023-03-24T03:14:11.033Z,99303.72
2023-03-24T03:15:21.532Z,99311.66
2023-03-24T03:16:27.981Z,99311.53
2023-03-24T03:17:37.578Z,99314.08
2023-03-24T03:18:49.806Z,99318.45
2023-03-24T03:19:55.647Z,99310.36
2023-03-24T03:21:03.776Z,99311.23
2023-03-24T03:22:09.185Z,99304.14
2023-03-24T03:23:13.747Z,99309.38
2023-03-24T03:24:19.641Z,99303.98
2023-03-24T03:25:24.572Z,99308.39
2023-03-24T03:26:28.097Z,99306.53
2023-03-24T03:27:33.429Z,99308.39
2023-03-24T03:28:38.834Z,99303.00
2023-03-24T03:29:53.560Z,99306.38
2023-03-24T03:31:02.013Z,99306.38
2023-03-24T03:32:08.810Z,99308.92
2023-03-24T03:33:21.520Z,99308.09
2023-03-24T03:34:41.768Z,99310.78
2023-03-24T03:37:43.108Z,99306.91
2023-03-24T03:40:34.221Z,99306.34
2023-03-24T03:41:38.846Z,99311.92
2023-03-24T03:42:41.861Z,99313.93
2023-03-24T03:43:45.784Z,99312.22
2023-03-24T03:44:48.524Z,99315.75
2023-03-24T03:45:52.089Z,99318.30
2023-03-24T03:46:56.841Z,99307.52
2023-03-24T03:48:02.197Z,99307.52
2023-03-24T03:49:06.271Z,99316.47
2023-03-24T03:50:09.558Z,99311.09
2023-03-24T03:51:14.480Z,99305.55
2023-03-24T03:52:25.500Z,99311.77
2023-03-24T03:54:46.877Z,99320.69
2023-03-24T03:55:49.791Z,99316.17
2023-03-24T03:56:54.063Z,99319.86
2023-03-24T03:58:03.099Z,99321.71
2023-03-24T03:59:07.809Z,99318.87
2023-03-24T04:00:16.483Z,99331.35
2023-03-24T04:01:27.273Z,99328.66
2023-03-24T04:02:47.423Z,99326.80
2023-03-24T04:05:26.057Z,99334.70
2023-03-24T04:06:47.482Z,99335.75
2023-03-24T04:08:16.795Z,99338.56
2023-03-24T04:09:53.725Z,99336.74
2023-03-24T04:11:06.725Z,99335.03
2023-03-24T04:12:21.385Z,99333.33
2023-03-24T04:13:51.176Z,99335.19
2023-03-24T04:15:05.429Z,99332.48
2023-03-24T04:16:44.790Z,99340.72
2023-03-24T04:18:03.284Z,99340.72
2023-03-24T04:19:40.682Z,99345.24
2023-03-24T04:20:51.793Z,99340.88
2023-03-24T04:22:12.444Z,99345.24
2023-03-24T04:23:30.662Z,99339.85
2023-03-24T04:25:00.011Z,99336.32
2023-03-24T04:26:14.910Z,99334.61
2023-03-24T04:27:27.343Z,99345.39
2023-03-24T04:28:54.452Z,99347.25
2023-03-24T04:30:11.207Z,99346.26
2023-03-24T04:31:29.185Z,99357.19
2023-03-24T04:32:57.999Z,99352.64
2023-03-24T04:34:08.886Z,99358.02
2023-03-24T04:35:15.186Z,99353.47
2023-03-24T04:36:45.107Z,99346.26
2023-03-24T04:37:52.972Z,99348.08
2023-03-24T04:38:57.458Z,99359.73
2023-03-24T04:40:05.565Z,99361.55
2023-03-24T04:41:09.042Z,99359.73
2023-03-24T04:42:21.635Z,99359.73
2023-03-24T04:43:26.983Z,99362.27
2023-03-24T04:44:32.078Z,99366.67
2023-03-24T04:47:07.940Z,99370.03
2023-03-24T04:48:12.143Z,99368.36
2023-03-24T04:49:18.458Z,99374.61
2023-03-24T04:51:43.049Z,99366.20
2023-03-24T04:52:53.387Z,99371.62
2023-03-24T04:53:55.699Z,99367.94
2023-03-24T04:54:58.599Z,99375.87
2023-03-24T04:56:09.475Z,99376.71
2023-03-24T04:57:22.975Z,99379.25
2023-03-24T04:58:27.140Z,99378.27
2023-03-24T04:59:31.870Z,99386.20
2023-03-24T05:00:36.921Z,99387.19
2023-03-24T05:01:41.200Z,99390.61
2023-03-24T05:03:03.992Z,99389.63
2023-03-24T05:04:07.808Z,99389.63
2023-03-24T05:05:12.407Z,99393.16
2023-03-24T05:06:17.146Z,99395.70
2023-03-24T05:07:20.878Z,99395.70
2023-03-24T05:08:27.153Z,99389.47
2023-03-24T05:09:33.047Z,99394.86
2023-03-24T05:10:37.720Z,99395.70
2023-03-24T05:11:41.478Z,99396.53
2023-03-24T05:12:44.515Z,99392.02
2023-03-24T05:14:04.778Z,99395.55
2023-03-24T05:15:09.994Z,99390.16
2023-03-24T05:16:14.005Z,99392.86
2023-03-24T05:17:18.404Z,99389.17
2023-03-24T05:18:21.804Z,99382.08
2023-03-24T05:19:24.734Z,99391.03
2023-03-24T05:20:28.158Z,99384.77
2023-03-24T05:21:33.721Z,99382.08
2023-03-24T05:22:38.788Z,99381.09
2023-03-24T05:23:41.370Z,99378.39
2023-03-24T05:24:44.177Z,99387.16
2023-03-24T05:25:47.240Z,99383.48
2023-03-24T05:26:51.004Z,99379.08
2023-03-24T05:27:55.639Z,99382.64
2023-03-24T05:29:00.286Z,99384.32
2023-03-24T05:31:18.649Z,99373.42
2023-03-24T05:32:25.663Z,99381.63
2023-03-24T05:33:28.277Z,99385.19
2023-03-24T05:34:31.613Z,99385.19
2023-03-24T05:35:36.327Z,99389.71
2023-03-24T05:36:39.482Z,99387.88
2023-03-24T05:37:43.329Z,99392.29
2023-03-24T05:38:46.516Z,99397.68
2023-03-24T05:39:49.146Z,99395.82
2023-03-24T05:42:10.901Z,99397.53
2023-03-24T05:43:14.284Z,99398.67
2023-03-24T05:44:18.645Z,99400.48
2023-03-24T05:45:24.519Z,99416.66
2023-03-24T05:46:27.468Z,99421.06
2023-03-24T05:47:30.995Z,99423.77
2023-03-24T05:48:33.649Z,99412.14
2023-03-24T05:49:52.320Z,99413.85
2023-03-24T05:50:56.283Z,99407.59
2023-03-24T05:51:59.762Z,99403.07
2023-03-24T05:53:03.171Z,99404.06
2023-03-24T05:55:41.120Z,99395.82
2023-03-24T05:56:46.742Z,99402.34
2023-03-24T05:58:00.441Z,99395.25
2023-03-24T05:59:05.894Z,99404.20
2023-03-24T06:00:23.196Z,99402.50
2023-03-24T06:01:28.287Z,99401.66
2023-03-24T06:02:32.819Z,99397.11
2023-03-24T06:03:41.169Z,99403.48
2023-03-24T06:04:48.248Z,99399.95
2023-03-24T06:05:52.240Z,99399.11
2023-03-24T06:06:55.381Z,99397.26
2023-03-24T06:08:01.557Z,99399.95
2023-03-24T06:09:07.596Z,99399.95
2023-03-24T06:10:11.283Z,99402.50
2023-03-24T06:11:16.437Z,99396.42
2023-03-24T06:12:22.068Z,99394.56
2023-03-24T06:13:27.003Z,99395.40
2023-03-24T06:14:29.993Z,99398.09
2023-03-24T06:15:34.857Z,99404.36
2023-03-24T06:16:39.875Z,99405.05
2023-03-24T06:17:45.863Z,99400.64
2023-03-24T06:18:52.533Z,99405.87
2023-03-24T06:20:03.736Z,99407.73
2023-03-24T06:21:08.029Z,99412.29
2023-03-24T06:22:12.290Z,99410.44
2023-03-24T06:23:15.036Z,99409.45
2023-03-24T06:24:23.125Z,99404.89
2023-03-24T06:25:27.730Z,99392.41
2023-03-24T06:26:37.837Z,99399.50
2023-03-24T06:27:47.356Z,99404.06
2023-03-24T06:28:51.436Z,99402.20
2023-03-24T06:29:54.750Z,99401.36
2023-03-24T06:30:58.167Z,99401.36
2023-03-24T06:32:04.513Z,99402.20
2023-03-24T06:33:11.815Z,99404.06
2023-03-24T06:34:15.952Z,99412.98
2023-03-24T06:35:22.011Z,99405.77
2023-03-24T06:36:26.502Z,99403.19
2023-03-24T06:37:29.984Z,99404.06
2023-03-24T06:38:34.645Z,99403.19
2023-03-24T06:39:38.079Z,99401.36
2023-03-24T06:40:40.862Z,99398.52
2023-03-24T06:41:43.627Z,99382.95
2023-03-24T06:42:46.170Z,99382.95
2023-03-24T06:43:48.831Z,99393.27
2023-03-24T06:44:51.882Z,99394.98
2023-03-24T06:45:54.469Z,99394.11
2023-03-24T06:46:58.828Z,99400.38
2023-03-24T06:48:02.767Z,99389.59
2023-03-24T06:49:06.777Z,99389.59
2023-03-24T06:50:11.196Z,99391.42
2023-03-24T06:51:15.344Z,99394.98
2023-03-24T06:52:18.464Z,99388.72
2023-03-24T06:53:21.421Z,99399.50
2023-03-24T06:54:25.561Z,99390.58
2023-03-24T06:55:28.577Z,99392.29
2023-03-24T06:56:31.805Z,99397.68
2023-03-24T06:57:35.988Z,99386.89
2023-03-24T06:59:58.523Z,99395.67
2023-03-24T07:01:02.910Z,99398.67
2023-03-24T07:02:12.011Z,99395.97
2023-03-24T07:03:16.620Z,99406.75
2023-03-24T07:04:21.138Z,99408.46
2023-03-24T07:05:33.641Z,99409.30
2023-03-24T07:06:49.837Z,99404.06
2023-03-24T07:08:51.806Z,99412.98
2023-03-24T07:09:55.171Z,99418.38
2023-03-24T07:10:58.978Z,99408.58
2023-03-24T07:12:02.951Z,99408.58
2023-03-24T07:13:06.422Z,99409.45
2023-03-24T07:14:10.307Z,99408.46
2023-03-24T07:15:12.930Z,99415.67
2023-03-24T07:16:17.718Z,99404.89
2023-03-24T07:17:22.012Z,99400.38
2023-03-24T07:18:31.020Z,99409.30
2023-03-24T07:19:38.804Z,99415.67
2023-03-24T07:20:53.477Z,99408.46
2023-03-24T07:21:57.923Z,99413.85
2023-03-24T07:23:03.285Z,99413.97
2023-03-24T07:24:08.934Z,99406.75
2023-03-24T07:25:25.332Z,99405.87
2023-03-24T07:26:30.220Z,99408.58
2023-03-24T07:27:37.018Z,99402.34
2023-03-24T07:28:39.692Z,99407.73
2023-03-24T07:29:42.775Z,99412.14
2023-03-24T07:31:04.696Z,99405.87
2023-03-24T07:32:08.647Z,99412.29
2023-03-24T07:33:11.844Z,99410.44
2023-03-24T07:34:15.867Z,99411.27
2023-03-24T07:35:23.778Z,99415.83
2023-03-24T07:36:26.926Z,99419.51
2023-03-24T07:37:30.429Z,99408.73
2023-03-24T07:38:34.107Z,99411.42
2023-03-24T07:39:39.010Z,99414.84
2023-03-24T07:40:42.099Z,99413.97
2023-03-24T07:41:45.189Z,99408.58
2023-03-24T07:42:50.942Z,99412.98
2023-03-24T07:44:12.311Z,99412.98
2023-03-24T07:45:18.134Z,99418.22
2023-03-24T07:46:21.254Z,99412.98
2023-03-24T07:47:26.493Z,99412.83
2023-03-24T07:48:30.399Z,99404.74
2023-03-24T07:49:33.432Z,99408.31
2023-03-24T07:50:38.110Z,99411.84
2023-03-24T07:51:43.082Z,99413.70
2023-03-24T07:53:08.047Z,99409.15
2023-03-24T07:54:10.787Z,99406.45
2023-03-24T07:55:22.299Z,99404.74
2023-03-24T07:56:26.858Z,99405.77
2023-03-24T07:57:32.389Z,99411.27
2023-03-24T07:58:35.505Z,99411.42
2023-03-24T07:59:40.564Z,99413.28
2023-03-24T08:00:48.302Z,99412.44
2023-03-24T08:01:56.943Z,99415.28
2023-03-24T08:03:01.182Z,99416.27
2023-03-24T08:04:26.559Z,99420.80
2023-03-24T08:05:41.079Z,99412.86
2023-03-24T08:07:05.761Z,99414.86
2023-03-24T08:08:08.265Z,99417.70
2023-03-24T08:09:11.937Z,99415.27
2023-03-24T08:10:15.400Z,99415.27
2023-03-24T08:11:18.687Z,99413.59
2023-03-24T08:12:22.187Z,99413.75
2023-03-24T08:13:26.340Z,99412.73
2023-03-24T08:14:29.708Z,99408.36
2023-03-24T08:15:32.335Z,99407.48
2023-03-24T08:16:35.461Z,99412.88
2023-03-24T08:17:38.260Z,99414.73
2023-03-24T08:18:40.988Z,99409.34
2023-03-24T08:19:58.258Z,99408.50
2023-03-24T08:20:49.051Z,99405.81
2023-03-24T08:21:52.665Z,99407.63
2023-03-24T08:22:55.713Z,99400.42
2023-03-24T08:23:58.353Z,99400.42
2023-03-24T08:25:00.905Z,99397.73
2023-03-24T08:26:03.443Z,99401.41
2023-03-24T08:27:07.227Z,99405.92
2023-03-24T08:28:10.347Z,99404.10
2023-03-24T08:29:13.297Z,99402.39
2023-03-24T08:30:18.115Z,99401.41
2023-03-24T08:31:20.816Z,99404.10
2023-03-24T08:32:23.851Z,99400.54
2023-03-24T08:33:26.529Z,99396.02
2023-03-24T08:34:30.398Z,99397.01
2023-03-24T08:35:35.534Z,99410.48
2023-03-24T08:36:39.244Z,99400.54
2023-03-24T08:38:56.861Z,99405.91
2023-03-24T08:40:02.615Z,99403.38
2023-03-24T08:41:06.604Z,99407.78
2023-03-24T08:42:10.731Z,99404.25
2023-03-24T08:43:14.478Z,99406.95
2023-03-24T08:44:17.896Z,99400.69
2023-03-24T08:45:21.311Z,99407.94
2023-03-24T08:46:25.089Z,99399.84
2023-03-24T08:47:30.177Z,99400.69
2023-03-24T08:48:33.457Z,99395.30
2023-03-24T08:49:36.192Z,99397.98
2023-03-24T08:50:40.304Z,99389.91
2023-03-24T08:51:43.480Z,99395.30
2023-03-24T08:52:49.108Z,99395.45
2023-03-24T08:53:53.953Z,99397.98
2023-03-24T08:54:57.057Z,99398.14
2023-03-24T08:55:59.857Z,99394.61
2023-03-24T08:57:02.424Z,99405.38
2023-03-24T08:58:04.970Z,99406.22
2023-03-24T08:59:08.349Z,99397.30
2023-03-24T09:00:14.296Z,99397.30
2023-03-24T09:01:17.776Z,99395.45
2023-03-24T09:02:20.879Z,99395.45
2023-03-24T09:03:25.465Z,99402.69
2023-03-24T09:04:28.417Z,99395.45
2023-03-24T09:05:44.030Z,99388.34
2023-03-24T09:06:36.831Z,99389.37
2023-03-24T09:07:39.501Z,99392.06
2023-03-24T09:08:42.501Z,99395.45
2023-03-24T09:09:46.017Z,99394.61
2023-03-24T09:10:50.695Z,99392.90
2023-03-24T09:11:53.119Z,99391.05
2023-03-24T09:12:56.878Z,99392.06
2023-03-24T09:13:59.942Z,99391.91
2023-03-24T09:15:04.306Z,99393.73
2023-03-24T09:16:07.683Z,99387.52
2023-03-24T09:17:24.888Z,99388.34
2023-03-24T09:18:28.721Z,99388.34
2023-03-24T09:19:31.498Z,99388.34
2023-03-24T09:20:34.289Z,99388.34
2023-03-24T09:21:39.014Z,99385.66
2023-03-24T09:22:43.913Z,99378.44
2023-03-24T09:23:46.633Z,99392.90
2023-03-24T09:24:50.144Z,99384.67
2023-03-24T09:25:54.303Z,99390.92
2023-03-24T09:26:57.099Z,99383.83
2023-03-24T09:28:00.837Z,99387.36
2023-03-24T09:29:04.737Z,99386.52
2023-03-24T09:30:08.955Z,99385.53
2023-03-24T09:31:13.415Z,99383.83
2023-03-24T09:32:16.246Z,99388.23
2023-03-24T09:33:18.793Z,99390.92
2023-03-24T09:34:22.173Z,99382.84
2023-03-24T09:35:26.698Z,99384.67
2023-03-24T09:36:31.081Z,99385.53
2023-03-24T09:37:34.999Z,99387.22
2023-03-24T09:38:39.004Z,99387.36
2023-03-24T09:39:41.630Z,99386.38
2023-03-24T09:40:46.617Z,99385.53
2023-03-24T09:41:51.225Z,99379.28
2023-03-24T09:43:06.171Z,99384.67
2023-03-24T09:45:57.145Z,99374.73
2023-03-24T09:47:01.890Z,99378.44
2023-03-24T09:48:11.056Z,99381.28
2023-03-24T09:49:17.807Z,99376.87
2023-03-24T09:51:42.199Z,99377.84
2023-03-24T09:52:45.293Z,99375.17
2023-03-24T09:54:17.243Z,99377.03
2023-03-24T09:55:24.300Z,99380.71
2023-03-24T09:57:42.627Z,99376.17
2023-03-24T09:58:47.532Z,99375.32
2023-03-24T09:59:49.900Z,99371.79
2023-03-24T10:00:56.024Z,99377.18
2023-03-24T10:01:58.041Z,99379.00
2023-03-24T10:03:04.705Z,99384.39
2023-03-24T10:04:17.550Z,99378.16
2023-03-24T10:06:44.640Z,99370.78
2023-03-24T10:07:54.151Z,99378.02
2023-03-24T10:09:13.470Z,99374.48
2023-03-24T10:11:54.758Z,99378.86
2023-03-24T10:13:01.041Z,99376.31
2023-03-24T10:14:24.939Z,99378.16
2023-03-24T10:15:37.864Z,99377.47
2023-03-24T10:16:46.343Z,99371.06
2023-03-24T10:19:30.311Z,99371.05
2023-03-24T10:20:47.815Z,99367.69
2023-03-24T10:22:12.180Z,99372.20
2023-03-24T10:23:47.910Z,99371.37
2023-03-24T10:25:12.347Z,99371.52
2023-03-24T10:26:24.973Z,99361.72
2023-03-24T10:27:36.035Z,99370.79
2023-03-24T10:28:48.188Z,99363.88
2023-03-24T10:29:54.061Z,99358.64
2023-03-24T10:30:57.235Z,99362.31
2023-03-24T10:33:18.973Z,99349.66
2023-03-24T10:34:23.396Z,99361.45
2023-03-24T10:35:31.832Z,99358.75
2023-03-24T10:36:36.422Z,99347.14
2023-03-24T10:37:39.847Z,99353.36
2023-03-24T10:38:42.816Z,99347.86
2023-03-24T10:39:46.360Z,99358.48
2023-03-24T10:40:49.310Z,99355.64
2023-03-24T10:41:53.744Z,99350.27
2023-03-24T10:43:06.995Z,99355.50
2023-03-24T10:44:02.311Z,99342.87
2023-03-24T10:45:09.579Z,99354.36
2023-03-24T10:46:15.722Z,99350.53
2023-03-24T10:47:22.500Z,99361.31
2023-03-24T10:48:43.756Z,99346.82
2023-03-24T10:49:59.166Z,99342.30
2023-03-24T10:51:02.264Z,99344.85
2023-03-24T10:52:09.525Z,99341.17
2023-03-24T10:53:19.399Z,99348.23
2023-03-24T10:54:25.151Z,99334.91
2023-03-24T10:55:33.130Z,99339.31
2023-03-24T10:58:02.985Z,99332.76
2023-03-24T11:01:41.088Z,99336.44
2023-03-24T11:02:43.755Z,99335.63
2023-03-24T11:03:47.151Z,99344.55
2023-03-24T11:04:56.106Z,99332.94
2023-03-24T11:06:01.297Z,99332.79
2023-03-24T11:07:07.876Z,99329.22
2023-03-24T11:09:45.150Z,99329.91
2023-03-24T11:10:49.654Z,99329.08
2023-03-24T11:11:54.098Z,99322.84
2023-03-24T11:12:59.372Z,99334.47
2023-03-24T11:14:03.827Z,99323.69
2023-03-24T11:15:28.917Z,99328.23
2023-03-24T11:17:57.120Z,99324.52
2023-03-24T11:19:05.312Z,99325.55
2023-03-24T11:20:21.178Z,99323.84
2023-03-24T11:21:23.684Z,99328.53
2023-03-24T11:22:27.642Z,99320.45
2023-03-24T11:23:42.200Z,99316.92
2023-03-24T11:24:46.377Z,99321.44
2023-03-24T11:26:11.013Z,99315.22
2023-03-24T11:27:14.480Z,99330.51
2023-03-24T11:28:20.307Z,99322.58
2023-03-24T11:29:25.095Z,99319.05
2023-03-24T11:31:56.493Z,99313.63
2023-03-24T11:32:58.962Z,99313.81
2023-03-24T11:34:22.395Z,99313.81
2023-03-24T11:35:39.069Z,99316.50
2023-03-24T11:36:37.449Z,99315.63
2023-03-24T11:37:40.759Z,99303.87
2023-03-24T11:38:43.685Z,99314.64
2023-03-24T11:40:09.452Z,99308.27
2023-03-24T11:41:14.311Z,99309.11
2023-03-24T11:42:18.585Z,99313.51
2023-03-24T11:43:21.713Z,99305.42
2023-03-24T11:44:25.167Z,99309.11
2023-03-24T11:45:40.356Z,99306.41
2023-03-24T11:46:43.990Z,99305.58
2023-03-24T11:47:46.552Z,99293.97
2023-03-24T11:48:58.066Z,99293.97
2023-03-24T11:50:13.497Z,99297.64
2023-03-24T11:52:55.512Z,99293.93
2023-03-24T11:53:59.084Z,99288.70
2023-03-24T11:55:02.610Z,99288.84
2023-03-24T11:56:21.716Z,99285.16
2023-03-24T11:57:47.598Z,99278.64
2023-03-24T11:59:07.824Z,99282.02
2023-03-24T12:00:19.840Z,99281.03
2023-03-24T12:01:30.023Z,99288.27
2023-03-24T12:04:25.519Z,99292.49
2023-03-24T12:05:40.949Z,99287.28
2023-03-24T12:06:50.060Z,99284.59
2023-03-24T12:09:33.456Z,99278.15
2023-03-24T12:12:10.163Z,99277.31
2023-03-24T12:13:26.006Z,99281.03
2023-03-24T12:14:53.463Z,99283.72
2023-03-24T12:16:12.620Z,99285.58
2023-03-24T12:18:37.143Z,99271.92
2023-03-24T12:20:00.866Z,99276.63
2023-03-24T12:21:16.470Z,99267.71
2023-03-24T12:22:35.205Z,99271.24
2023-03-24T12:23:58.690Z,99264.87
2023-03-24T12:26:36.597Z,99254.92
2023-03-24T12:27:58.365Z,99261.34
2023-03-24T12:29:33.428Z,99262.33
2023-03-24T12:30:49.632Z,99265.86
2023-03-24T12:32:15.536Z,99259.63
2023-03-24T12:33:23.022Z,99272.27
2023-03-24T12:34:29.298Z,99258.95
2023-03-24T12:35:41.748Z,99255.38
2023-03-24T12:37:07.037Z,99259.06
2023-03-24T12:38:13.604Z,99264.45
2023-03-24T12:39:20.707Z,99258.95
2023-03-24T12:40:30.294Z,99254.55
2023-03-24T12:41:51.473Z,99254.55
2023-03-24T12:43:10.700Z,99249.99
2023-03-24T12:44:40.683Z,99258.95
2023-03-24T12:45:52.096Z,99258.95
2023-03-24T12:47:08.668Z,99254.55
2023-03-24T12:48:27.400Z,99247.30
2023-03-24T12:50:04.902Z,99259.94
2023-03-24T12:51:26.731Z,99246.47
2023-03-24T12:54:26.117Z,99247.98
2023-03-24T12:55:40.988Z,99236.52
2023-03-24T12:56:50.322Z,99245.48
2023-03-24T12:59:50.833Z,99232.65
2023-03-24T13:01:09.595Z,99242.48
2023-03-24T13:02:34.325Z,99236.22
2023-03-24T13:03:42.942Z,99229.84
2023-03-24T13:04:46.537Z,99233.53
2023-03-24T13:07:08.354Z,99223.87
2023-03-24T13:08:15.910Z,99233.41
2023-03-24T13:09:55.591Z,99225.48
2023-03-24T13:11:03.090Z,99226.20
2023-03-24T13:12:31.607Z,99229.73
2023-03-24T13:13:39.867Z,99225.33
2023-03-24T13:14:56.870Z,99220.81
2023-03-24T13:16:15.440Z,99228.90
2023-03-24T13:17:21.886Z,99224.50
2023-03-24T13:18:28.131Z,99231.73
2023-03-24T13:19:30.848Z,99211.18
2023-03-24T13:20:53.452Z,99221.12
2023-03-24T13:21:57.027Z,99217.41
2023-03-24T13:23:03.713Z,99230.72
2023-03-24T13:24:14.480Z,99220.81
2023-03-24T13:25:26.640Z,99217.13
2023-03-24T13:28:06.377Z,99209.84
2023-03-24T13:29:21.347Z,99212.73
2023-03-24T13:30:31.691Z,99209.48
2023-03-24T13:31:53.472Z,99209.33
2023-03-24T13:35:44.436Z,99216.27
2023-03-24T13:36:50.655Z,99207.69
2023-03-24T13:37:59.684Z,99210.66
2023-03-24T13:39:10.712Z,99207.95
2023-03-24T13:40:23.737Z,99196.05
2023-03-24T13:41:27.678Z,99204.84
2023-03-24T13:44:01.637Z,99200.97
2023-03-24T13:45:05.901Z,99203.98
2023-03-24T13:46:13.630Z,99208.37
2023-03-24T13:47:17.266Z,99198.44
2023-03-24T13:48:29.152Z,99200.75
2023-03-24T13:49:32.004Z,99200.75
2023-03-24T13:50:37.983Z,99197.19
2023-03-24T13:51:44.809Z,99192.82
2023-03-24T13:52:50.963Z,99197.48
2023-03-24T13:55:27.693Z,99194.61
2023-03-24T13:56:35.408Z,99199.05
2023-03-24T13:57:42.772Z,99190.28
2023-03-24T14:00:22.154Z,99186.68
2023-03-24T14:02:55.210Z,99191.65
2023-03-24T14:04:22.291Z,99197.94
2023-03-24T14:05:44.676Z,99187.17
2023-03-24T14:06:52.686Z,99186.30
2023-03-24T14:08:08.185Z,99188.88
2023-03-24T14:09:23.084Z,99187.17
2023-03-24T14:10:29.976Z,99192.55
2023-03-24T14:11:40.487Z,99185.44
2023-03-24T14:12:55.161Z,99188.99
2023-03-24T14:14:17.747Z,99186.19
2023-03-24T14:15:30.292Z,99182.32
2023-03-24T14:16:47.125Z,99181.03
2023-03-24T14:17:52.089Z,99188.95
2023-03-24T14:19:15.673Z,99178.34
2023-03-24T14:20:31.440Z,99180.88
2023-03-24T14:21:35.645Z,99179.05
2023-03-24T14:22:41.878Z,99177.20
2023-03-24T14:23:49.645Z,99180.76
2023-03-24T14:25:04.382Z,99171.66
2023-03-24T14:26:17.504Z,99175.22
2023-03-24T14:27:43.973Z,99172.53
2023-03-24T14:28:52.827Z,99166.12
2023-03-24T14:29:57.659Z,99166.12
2023-03-24T14:31:15.731Z,99167.14
2023-03-24T14:32:21.728Z,99164.60